sensor_id;sensor_type;location;lat;lon;timestamp;P1;durP1;ratioP1;P2;durP2;ratioP2
55021;SDS011;68328;35.990;-86.756;2023-04-16T00:00:59;6;;;6;;
55021;SDS011;68328;35.990;-86.756;2023-04-16T00:03:23;8;;;6;;
55021;SDS011;68328;35.990;-86.756;2023-04-16T00:05:48;9;;;9;;
55021;SDS011;68328;35.990;-86.756;2023-04-16T00:08:14;7;;;7;;
55021;SDS011;68328;35.990;-86.756;2023-04-16T00:10:40;6;;;6;;
55021;SDS011;68328;35.990;-86.756;2023-04-16T00:13:05;5;;;5;;
55021;SDS011;68328;35.990;-86.756;2023-04-16T00:15:30;6;;;6;;
55021;SDS011;68328;35.990;-86.756;2023-04-16T00:17:55;6;;;6;;
55021;SDS011;68328;35.990;-86.756;2023-04-16T00:20:21;6;;;6;;
55021;SDS011;68328;35.990;-86.756;2023-04-16T00:22:45;7;;;7;;
55021;SDS011;68328;35.990;-86.756;2023-04-16T00:27:36;9;;;9;;
55021;SDS011;68328;35.990;-86.756;2023-04-16T00:30:02;7;;;7;;
55021;SDS011;68328;35.990;-86.756;2023-04-16T00:32:28;8;;;8;;
55021;SDS011;68328;35.990;-86.756;2023-04-16T00:34:52;9;;;8;;
55021;SDS011;68328;35.990;-86.756;2023-04-16T00:37:18;9;;;8;;
55021;SDS011;68328;35.990;-86.756;2023-04-16T00:39:43;8;;;7;;
55021;SDS011;68328;35.990;-86.756;2023-04-16T00:42:09;7;;;5;;
55021;SDS011;68328;35.990;-86.756;2023-04-16T00:44:33;6;;;6;;
55021;SDS011;68328;35.990;-86.756;2023-04-16T00:46:58;7;;;7;;
55021;SDS011;68328;35.990;-86.756;2023-04-16T00:49:24;6;;;6;;
55021;SDS011;68328;35.990;-86.756;2023-04-16T00:51:49;6;;;6;;
55021;SDS011;68328;35.990;-86.756;2023-04-16T00:54:14;7;;;7;;
55021;SDS011;68328;35.990;-86.756;2023-04-16T00:56:40;6;;;6;;
55021;SDS011;68328;35.990;-86.756;2023-04-16T00:59:05;7;;;7;;
55021;SDS011;68328;35.990;-86.756;2023-04-16T01:01:31;9;;;8;;
55021;SDS011;68328;35.990;-86.756;2023-04-16T01:03:55;7;;;7;;
55021;SDS011;68328;35.990;-86.756;2023-04-16T01:06:21;7;;;5;;
55021;SDS011;68328;35.990;-86.756;2023-04-16T01:08:46;8;;;8;;
55021;SDS011;68328;35.990;-86.756;2023-04-16T01:11:12;7;;;7;;
55021;SDS011;68328;35.990;-86.756;2023-04-16T01:13:37;11;;;9;;
55021;SDS011;68328;35.990;-86.756;2023-04-16T01:16:02;7;;;7;;
55021;SDS011;68328;35.990;-86.756;2023-04-16T01:18:27;10;;;9;;
55021;SDS011;68328;35.990;-86.756;2023-04-16T01:20:53;7;;;7;;
55021;SDS011;68328;35.990;-86.756;2023-04-16T01:23:18;8;;;8;;
55021;SDS011;68328;35.990;-86.756;2023-04-16T01:25:43;8;;;8;;
55021;SDS011;68328;35.990;-86.756;2023-04-16T01:28:09;9;;;9;;
55021;SDS011;68328;35.990;-86.756;2023-04-16T01:30:34;9;;;9;;
55021;SDS011;68328;35.990;-86.756;2023-04-16T01:32:59;8;;;8;;
55021;SDS011;68328;35.990;-86.756;2023-04-16T01:35:24;9;;;7;;
55021;SDS011;68328;35.990;-86.756;2023-04-16T01:37:50;8;;;7;;
55021;SDS011;68328;35.990;-86.756;2023-04-16T01:40:15;8;;;7;;
55021;SDS011;68328;35.990;-86.756;2023-04-16T01:42:41;8;;;7;;
55021;SDS011;68328;35.990;-86.756;2023-04-16T01:45:06;7;;;7;;
55021;SDS011;68328;35.990;-86.756;2023-04-16T01:47:31;8;;;7;;
55021;SDS011;68328;35.990;-86.756;2023-04-16T01:49:57;9;;;9;;
55021;SDS011;68328;35.990;-86.756;2023-04-16T01:52:23;8;;;8;;
55021;SDS011;68328;35.990;-86.756;2023-04-16T01:54:47;9;;;8;;
55021;SDS011;68328;35.990;-86.756;2023-04-16T01:57:12;7;;;7;;
55021;SDS011;68328;35.990;-86.756;2023-04-16T01:59:37;6;;;6;;
55021;SDS011;68328;35.990;-86.756;2023-04-16T02:02:04;8;;;8;;
55021;SDS011;68328;35.990;-86.756;2023-04-16T02:04:28;8;;;8;;
55021;SDS011;68328;35.990;-86.756;2023-04-16T02:06:54;8;;;8;;
55021;SDS011;68328;35.990;-86.756;2023-04-16T02:09:18;8;;;7;;
55021;SDS011;68328;35.990;-86.756;2023-04-16T02:11:44;7;;;7;;
55021;SDS011;68328;35.990;-86.756;2023-04-16T02:14:10;8;;;8;;
55021;SDS011;68328;35.990;-86.756;2023-04-16T02:16:34;9;;;9;;
55021;SDS011;68328;35.990;-86.756;2023-04-16T02:19:00;10;;;10;;
55021;SDS011;68328;35.990;-86.756;2023-04-16T02:21:25;9;;;9;;
55021;SDS011;68328;35.990;-86.756;2023-04-16T02:23:50;10;;;9;;
55021;SDS011;68328;35.990;-86.756;2023-04-16T02:26:16;7;;;7;;
55021;SDS011;68328;35.990;-86.756;2023-04-16T02:28:41;9;;;9;;
55021;SDS011;68328;35.990;-86.756;2023-04-16T02:31:07;8;;;8;;
55021;SDS011;68328;35.990;-86.756;2023-04-16T02:33:32;8;;;8;;
55021;SDS011;68328;35.990;-86.756;2023-04-16T02:35:57;9;;;9;;
55021;SDS011;68328;35.990;-86.756;2023-04-16T02:38:22;13;;;13;;
55021;SDS011;68328;35.990;-86.756;2023-04-16T02:40:49;11;;;11;;
55021;SDS011;68328;35.990;-86.756;2023-04-16T02:43:14;11;;;11;;
55021;SDS011;68328;35.990;-86.756;2023-04-16T02:45:40;15;;;15;;
55021;SDS011;68328;35.990;-86.756;2023-04-16T02:48:05;11;;;9;;
55021;SDS011;68328;35.990;-86.756;2023-04-16T02:50:30;9;;;9;;
55021;SDS011;68328;35.990;-86.756;2023-04-16T02:52:55;14;;;13;;
55021;SDS011;68328;35.990;-86.756;2023-04-16T02:55:21;11;;;11;;
55021;SDS011;68328;35.990;-86.756;2023-04-16T02:57:47;20;;;18;;
55021;SDS011;68328;35.990;-86.756;2023-04-16T03:00:12;11;;;11;;
55021;SDS011;68328;35.990;-86.756;2023-04-16T03:02:37;9;;;9;;
55021;SDS011;68328;35.990;-86.756;2023-04-16T03:05:02;12;;;10;;
55021;SDS011;68328;35.990;-86.756;2023-04-16T03:07:28;13;;;12;;
55021;SDS011;68328;35.990;-86.756;2023-04-16T03:09:53;11;;;11;;
55021;SDS011;68328;35.990;-86.756;2023-04-16T03:12:18;11;;;10;;
55021;SDS011;68328;35.990;-86.756;2023-04-16T03:14:44;11;;;11;;
55021;SDS011;68328;35.990;-86.756;2023-04-16T03:17:10;13;;;12;;
55021;SDS011;68328;35.990;-86.756;2023-04-16T03:19:36;17;;;17;;
55021;SDS011;68328;35.990;-86.756;2023-04-16T03:22:01;10;;;10;;
55021;SDS011;68328;35.990;-86.756;2023-04-16T03:24:26;14;;;13;;
55021;SDS011;68328;35.990;-86.756;2023-04-16T03:26:52;9;;;9;;
55021;SDS011;68328;35.990;-86.756;2023-04-16T03:29:17;12;;;12;;
55021;SDS011;68328;35.990;-86.756;2023-04-16T03:31:42;13;;;13;;
55021;SDS011;68328;35.990;-86.756;2023-04-16T03:34:07;16;;;14;;
55021;SDS011;68328;35.990;-86.756;2023-04-16T03:36:32;11;;;11;;
55021;SDS011;68328;35.990;-86.756;2023-04-16T03:38:57;13;;;12;;
55021;SDS011;68328;35.990;-86.756;2023-04-16T03:41:23;11;;;11;;
55021;SDS011;68328;35.990;-86.756;2023-04-16T03:43:48;12;;;12;;
55021;SDS011;68328;35.990;-86.756;2023-04-16T03:46:14;13;;;13;;
55021;SDS011;68328;35.990;-86.756;2023-04-16T03:48:40;13;;;13;;
55021;SDS011;68328;35.990;-86.756;2023-04-16T03:51:05;12;;;12;;
55021;SDS011;68328;35.990;-86.756;2023-04-16T03:53:31;14;;;14;;
55021;SDS011;68328;35.990;-86.756;2023-04-16T03:55:56;14;;;14;;
55021;SDS011;68328;35.990;-86.756;2023-04-16T03:58:21;20;;;20;;
55021;SDS011;68328;35.990;-86.756;2023-04-16T04:00:46;15;;;14;;
55021;SDS011;68328;35.990;-86.756;2023-04-16T04:03:12;14;;;14;;
55021;SDS011;68328;35.990;-86.756;2023-04-16T04:05:39;15;;;12;;
55021;SDS011;68328;35.990;-86.756;2023-04-16T04:08:04;12;;;12;;
55021;SDS011;68328;35.990;-86.756;2023-04-16T04:10:30;12;;;12;;
55021;SDS011;68328;35.990;-86.756;2023-04-16T04:12:55;14;;;14;;
55021;SDS011;68328;35.990;-86.756;2023-04-16T04:15:20;15;;;15;;
55021;SDS011;68328;35.990;-86.756;2023-04-16T04:17:46;16;;;16;;
55021;SDS011;68328;35.990;-86.756;2023-04-16T04:20:12;14;;;14;;
55021;SDS011;68328;35.990;-86.756;2023-04-16T04:22:38;16;;;14;;
55021;SDS011;68328;35.990;-86.756;2023-04-16T04:25:02;12;;;12;;
55021;SDS011;68328;35.990;-86.756;2023-04-16T04:27:28;13;;;13;;
55021;SDS011;68328;35.990;-86.756;2023-04-16T04:29:53;16;;;16;;
55021;SDS011;68328;35.990;-86.756;2023-04-16T04:32:19;13;;;13;;
55021;SDS011;68328;35.990;-86.756;2023-04-16T04:34:45;21;;;21;;
55021;SDS011;68328;35.990;-86.756;2023-04-16T04:37:10;15;;;14;;
55021;SDS011;68328;35.990;-86.756;2023-04-16T04:39:36;15;;;15;;
55021;SDS011;68328;35.990;-86.756;2023-04-16T04:42:01;17;;;17;;
55021;SDS011;68328;35.990;-86.756;2023-04-16T04:44:26;15;;;15;;
55021;SDS011;68328;35.990;-86.756;2023-04-16T04:46:54;11;;;11;;
55021;SDS011;68328;35.990;-86.756;2023-04-16T04:49:17;12;;;12;;
55021;SDS011;68328;35.990;-86.756;2023-04-16T04:51:43;15;;;14;;
55021;SDS011;68328;35.990;-86.756;2023-04-16T04:54:09;22;;;21;;
55021;SDS011;68328;35.990;-86.756;2023-04-16T04:56:34;13;;;13;;
55021;SDS011;68328;35.990;-86.756;2023-04-16T04:59:00;15;;;15;;
55021;SDS011;68328;35.990;-86.756;2023-04-16T05:01:26;13;;;13;;
55021;SDS011;68328;35.990;-86.756;2023-04-16T05:03:51;12;;;12;;
55021;SDS011;68328;35.990;-86.756;2023-04-16T05:06:17;15;;;15;;
55021;SDS011;68328;35.990;-86.756;2023-04-16T05:08:42;20;;;19;;
55021;SDS011;68328;35.990;-86.756;2023-04-16T05:11:08;18;;;17;;
55021;SDS011;68328;35.990;-86.756;2023-04-16T05:13:34;16;;;14;;
55021;SDS011;68328;35.990;-86.756;2023-04-16T05:15:59;20;;;20;;
55021;SDS011;68328;35.990;-86.756;2023-04-16T05:18:25;13;;;13;;
55021;SDS011;68328;35.990;-86.756;2023-04-16T05:20:50;13;;;13;;
55021;SDS011;68328;35.990;-86.756;2023-04-16T05:23:16;13;;;13;;
55021;SDS011;68328;35.990;-86.756;2023-04-16T05:25:42;16;;;16;;
55021;SDS011;68328;35.990;-86.756;2023-04-16T05:28:08;13;;;13;;
55021;SDS011;68328;35.990;-86.756;2023-04-16T05:30:33;16;;;13;;
55021;SDS011;68328;35.990;-86.756;2023-04-16T05:32:59;15;;;15;;
55021;SDS011;68328;35.990;-86.756;2023-04-16T05:35:25;13;;;13;;
55021;SDS011;68328;35.990;-86.756;2023-04-16T05:37:50;12;;;12;;
55021;SDS011;68328;35.990;-86.756;2023-04-16T05:40:15;13;;;10;;
55021;SDS011;68328;35.990;-86.756;2023-04-16T05:42:40;12;;;11;;
55021;SDS011;68328;35.990;-86.756;2023-04-16T05:45:06;10;;;10;;
55021;SDS011;68328;35.990;-86.756;2023-04-16T05:47:32;11;;;11;;
55021;SDS011;68328;35.990;-86.756;2023-04-16T05:49:56;13;;;12;;
55021;SDS011;68328;35.990;-86.756;2023-04-16T05:52:22;11;;;11;;
55021;SDS011;68328;35.990;-86.756;2023-04-16T05:54:47;13;;;12;;
55021;SDS011;68328;35.990;-86.756;2023-04-16T05:57:12;13;;;13;;
55021;SDS011;68328;35.990;-86.756;2023-04-16T05:59:38;11;;;9;;
55021;SDS011;68328;35.990;-86.756;2023-04-16T06:02:03;10;;;10;;
55021;SDS011;68328;35.990;-86.756;2023-04-16T06:04:28;10;;;10;;
55021;SDS011;68328;35.990;-86.756;2023-04-16T06:06:55;13;;;12;;
55021;SDS011;68328;35.990;-86.756;2023-04-16T06:09:19;11;;;11;;
55021;SDS011;68328;35.990;-86.756;2023-04-16T06:11:45;8;;;8;;
55021;SDS011;68328;35.990;-86.756;2023-04-16T06:14:11;9;;;9;;
55021;SDS011;68328;35.990;-86.756;2023-04-16T06:16:35;11;;;11;;
55021;SDS011;68328;35.990;-86.756;2023-04-16T06:19:01;9;;;9;;
55021;SDS011;68328;35.990;-86.756;2023-04-16T06:21:27;8;;;8;;
55021;SDS011;68328;35.990;-86.756;2023-04-16T06:23:52;7;;;6;;
55021;SDS011;68328;35.990;-86.756;2023-04-16T06:26:17;4;;;4;;
55021;SDS011;68328;35.990;-86.756;2023-04-16T06:28:42;4;;;4;;
55021;SDS011;68328;35.990;-86.756;2023-04-16T06:31:08;5;;;5;;
55021;SDS011;68328;35.990;-86.756;2023-04-16T06:33:33;4;;;4;;
55021;SDS011;68328;35.990;-86.756;2023-04-16T06:35:58;3;;;3;;
55021;SDS011;68328;35.990;-86.756;2023-04-16T06:38:23;4;;;4;;
55021;SDS011;68328;35.990;-86.756;2023-04-16T06:40:49;4;;;4;;
55021;SDS011;68328;35.990;-86.756;2023-04-16T06:43:14;1;;;1;;
55021;SDS011;68328;35.990;-86.756;2023-04-16T06:45:39;3;;;2;;
55021;SDS011;68328;35.990;-86.756;2023-04-16T06:48:04;1;;;1;;
55021;SDS011;68328;35.990;-86.756;2023-04-16T06:50:30;6;;;3;;
55021;SDS011;68328;35.990;-86.756;2023-04-16T06:52:55;3;;;2;;
55021;SDS011;68328;35.990;-86.756;2023-04-16T06:55:21;2;;;2;;
55021;SDS011;68328;35.990;-86.756;2023-04-16T06:57:45;3;;;2;;
55021;SDS011;68328;35.990;-86.756;2023-04-16T07:00:11;2;;;2;;
55021;SDS011;68328;35.990;-86.756;2023-04-16T07:02:36;3;;;3;;
55021;SDS011;68328;35.990;-86.756;2023-04-16T07:05:01;1;;;1;;
55021;SDS011;68328;35.990;-86.756;2023-04-16T07:07:27;1;;;1;;
55021;SDS011;68328;35.990;-86.756;2023-04-16T07:09:52;3;;;3;;
55021;SDS011;68328;35.990;-86.756;2023-04-16T07:12:18;2;;;2;;
55021;SDS011;68328;35.990;-86.756;2023-04-16T07:14:43;2;;;2;;
55021;SDS011;68328;35.990;-86.756;2023-04-16T07:17:08;2;;;1;;
55021;SDS011;68328;35.990;-86.756;2023-04-16T07:19:34;2;;;1;;
55021;SDS011;68328;35.990;-86.756;2023-04-16T07:21:59;1;;;1;;
55021;SDS011;68328;35.990;-86.756;2023-04-16T07:24:24;2;;;2;;
55021;SDS011;68328;35.990;-86.756;2023-04-16T07:26:49;1;;;1;;
55021;SDS011;68328;35.990;-86.756;2023-04-16T07:29:14;1;;;1;;
55021;SDS011;68328;35.990;-86.756;2023-04-16T07:31:40;1;;;1;;
55021;SDS011;68328;35.990;-86.756;2023-04-16T07:34:05;2;;;2;;
55021;SDS011;68328;35.990;-86.756;2023-04-16T07:36:30;1;;;1;;
55021;SDS011;68328;35.990;-86.756;2023-04-16T07:38:56;1;;;1;;
55021;SDS011;68328;35.990;-86.756;2023-04-16T07:41:21;0;;;0;;
55021;SDS011;68328;35.990;-86.756;2023-04-16T07:43:46;0;;;0;;
55021;SDS011;68328;35.990;-86.756;2023-04-16T07:46:11;2;;;2;;
55021;SDS011;68328;35.990;-86.756;2023-04-16T07:48:37;1;;;1;;
55021;SDS011;68328;35.990;-86.756;2023-04-16T07:51:02;1;;;1;;
55021;SDS011;68328;35.990;-86.756;2023-04-16T07:53:27;1;;;1;;
55021;SDS011;68328;35.990;-86.756;2023-04-16T07:55:53;1;;;1;;
55021;SDS011;68328;35.990;-86.756;2023-04-16T07:58:18;1;;;1;;
55021;SDS011;68328;35.990;-86.756;2023-04-16T08:00:43;4;;;2;;
55021;SDS011;68328;35.990;-86.756;2023-04-16T08:03:08;1;;;1;;
55021;SDS011;68328;35.990;-86.756;2023-04-16T08:05:34;2;;;0;;
55021;SDS011;68328;35.990;-86.756;2023-04-16T08:07:59;0;;;0;;
55021;SDS011;68328;35.990;-86.756;2023-04-16T08:10:24;3;;;3;;
55021;SDS011;68328;35.990;-86.756;2023-04-16T08:12:49;2;;;2;;
55021;SDS011;68328;35.990;-86.756;2023-04-16T08:15:15;0;;;0;;
55021;SDS011;68328;35.990;-86.756;2023-04-16T08:17:40;2;;;2;;
55021;SDS011;68328;35.990;-86.756;2023-04-16T08:20:06;2;;;1;;
55021;SDS011;68328;35.990;-86.756;2023-04-16T08:22:31;1;;;1;;
55021;SDS011;68328;35.990;-86.756;2023-04-16T08:24:56;1;;;1;;
55021;SDS011;68328;35.990;-86.756;2023-04-16T08:27:21;2;;;2;;
55021;SDS011;68328;35.990;-86.756;2023-04-16T08:29:46;1;;;1;;
55021;SDS011;68328;35.990;-86.756;2023-04-16T08:32:12;2;;;2;;
55021;SDS011;68328;35.990;-86.756;2023-04-16T08:34:37;0;;;0;;
55021;SDS011;68328;35.990;-86.756;2023-04-16T08:37:02;1;;;1;;
55021;SDS011;68328;35.990;-86.756;2023-04-16T08:39:27;1;;;1;;
55021;SDS011;68328;35.990;-86.756;2023-04-16T08:41:53;2;;;2;;
55021;SDS011;68328;35.990;-86.756;2023-04-16T08:44:19;1;;;1;;
55021;SDS011;68328;35.990;-86.756;2023-04-16T08:46:43;2;;;2;;
55021;SDS011;68328;35.990;-86.756;2023-04-16T08:49:10;1;;;1;;
55021;SDS011;68328;35.990;-86.756;2023-04-16T08:51:34;2;;;2;;
55021;SDS011;68328;35.990;-86.756;2023-04-16T08:54:03;1;;;1;;
55021;SDS011;68328;35.990;-86.756;2023-04-16T08:56:24;2;;;2;;
55021;SDS011;68328;35.990;-86.756;2023-04-16T08:58:50;1;;;1;;
55021;SDS011;68328;35.990;-86.756;2023-04-16T09:01:15;3;;;3;;
55021;SDS011;68328;35.990;-86.756;2023-04-16T09:03:40;2;;;2;;
55021;SDS011;68328;35.990;-86.756;2023-04-16T09:06:05;2;;;2;;
55021;SDS011;68328;35.990;-86.756;2023-04-16T09:08:31;4;;;2;;
55021;SDS011;68328;35.990;-86.756;2023-04-16T09:10:56;1;;;1;;
55021;SDS011;68328;35.990;-86.756;2023-04-16T09:13:21;2;;;2;;
55021;SDS011;68328;35.990;-86.756;2023-04-16T09:15:46;2;;;2;;
55021;SDS011;68328;35.990;-86.756;2023-04-16T09:18:12;3;;;3;;
55021;SDS011;68328;35.990;-86.756;2023-04-16T09:20:38;3;;;3;;
55021;SDS011;68328;35.990;-86.756;2023-04-16T09:23:03;0;;;0;;
55021;SDS011;68328;35.990;-86.756;2023-04-16T09:25:32;1;;;1;;
55021;SDS011;68328;35.990;-86.756;2023-04-16T09:27:53;2;;;2;;
55021;SDS011;68328;35.990;-86.756;2023-04-16T09:30:19;3;;;3;;
55021;SDS011;68328;35.990;-86.756;2023-04-16T09:32:44;2;;;2;;
55021;SDS011;68328;35.990;-86.756;2023-04-16T09:35:09;1;;;1;;
55021;SDS011;68328;35.990;-86.756;2023-04-16T09:37:35;2;;;2;;
55021;SDS011;68328;35.990;-86.756;2023-04-16T09:40:00;2;;;2;;
55021;SDS011;68328;35.990;-86.756;2023-04-16T09:42:26;3;;;3;;
55021;SDS011;68328;35.990;-86.756;2023-04-16T09:44:51;4;;;4;;
55021;SDS011;68328;35.990;-86.756;2023-04-16T09:47:15;3;;;3;;
55021;SDS011;68328;35.990;-86.756;2023-04-16T09:49:41;2;;;2;;
55021;SDS011;68328;35.990;-86.756;2023-04-16T09:52:08;3;;;3;;
55021;SDS011;68328;35.990;-86.756;2023-04-16T09:54:32;3;;;3;;
55021;SDS011;68328;35.990;-86.756;2023-04-16T09:56:56;3;;;3;;
55021;SDS011;68328;35.990;-86.756;2023-04-16T09:59:22;3;;;3;;
55021;SDS011;68328;35.990;-86.756;2023-04-16T10:01:47;2;;;2;;
55021;SDS011;68328;35.990;-86.756;2023-04-16T10:04:12;2;;;2;;
55021;SDS011;68328;35.990;-86.756;2023-04-16T10:06:39;2;;;2;;
55021;SDS011;68328;35.990;-86.756;2023-04-16T10:09:05;3;;;3;;
55021;SDS011;68328;35.990;-86.756;2023-04-16T10:11:29;2;;;2;;
55021;SDS011;68328;35.990;-86.756;2023-04-16T10:13:54;4;;;4;;
55021;SDS011;68328;35.990;-86.756;2023-04-16T10:16:20;0;;;0;;
55021;SDS011;68328;35.990;-86.756;2023-04-16T10:18:45;2;;;2;;
55021;SDS011;68328;35.990;-86.756;2023-04-16T10:21:10;2;;;1;;
55021;SDS011;68328;35.990;-86.756;2023-04-16T10:23:35;1;;;1;;
55021;SDS011;68328;35.990;-86.756;2023-04-16T10:26:00;3;;;1;;
55021;SDS011;68328;35.990;-86.756;2023-04-16T10:28:26;5;;;3;;
55021;SDS011;68328;35.990;-86.756;2023-04-16T10:30:52;3;;;3;;
55021;SDS011;68328;35.990;-86.756;2023-04-16T10:33:18;2;;;2;;
55021;SDS011;68328;35.990;-86.756;2023-04-16T10:35:42;3;;;3;;
55021;SDS011;68328;35.990;-86.756;2023-04-16T10:40:32;1;;;1;;
55021;SDS011;68328;35.990;-86.756;2023-04-16T10:42:58;2;;;2;;
55021;SDS011;68328;35.990;-86.756;2023-04-16T10:45:29;3;;;3;;
55021;SDS011;68328;35.990;-86.756;2023-04-16T10:47:49;1;;;1;;
55021;SDS011;68328;35.990;-86.756;2023-04-16T10:50:15;2;;;2;;
55021;SDS011;68328;35.990;-86.756;2023-04-16T10:52:39;4;;;1;;
55021;SDS011;68328;35.990;-86.756;2023-04-16T10:55:04;3;;;3;;
55021;SDS011;68328;35.990;-86.756;2023-04-16T10:57:30;2;;;2;;
55021;SDS011;68328;35.990;-86.756;2023-04-16T10:59:56;3;;;2;;
55021;SDS011;68328;35.990;-86.756;2023-04-16T11:02:22;2;;;2;;
55021;SDS011;68328;35.990;-86.756;2023-04-16T11:04:46;1;;;1;;
55021;SDS011;68328;35.990;-86.756;2023-04-16T11:07:15;2;;;1;;
55021;SDS011;68328;35.990;-86.756;2023-04-16T11:09:43;2;;;2;;
55021;SDS011;68328;35.990;-86.756;2023-04-16T11:12:02;2;;;2;;
55021;SDS011;68328;35.990;-86.756;2023-04-16T11:14:28;2;;;2;;
55021;SDS011;68328;35.990;-86.756;2023-04-16T11:16:53;2;;;2;;
55021;SDS011;68328;35.990;-86.756;2023-04-16T11:19:17;1;;;1;;
55021;SDS011;68328;35.990;-86.756;2023-04-16T11:21:43;2;;;2;;
55021;SDS011;68328;35.990;-86.756;2023-04-16T11:24:08;1;;;1;;
55021;SDS011;68328;35.990;-86.756;2023-04-16T11:26:33;1;;;1;;
55021;SDS011;68328;35.990;-86.756;2023-04-16T11:28:59;1;;;1;;
55021;SDS011;68328;35.990;-86.756;2023-04-16T11:31:24;2;;;2;;
55021;SDS011;68328;35.990;-86.756;2023-04-16T11:33:49;5;;;4;;
55021;SDS011;68328;35.990;-86.756;2023-04-16T11:36:14;5;;;4;;
55021;SDS011;68328;35.990;-86.756;2023-04-16T11:38:40;4;;;2;;
55021;SDS011;68328;35.990;-86.756;2023-04-16T11:41:05;6;;;3;;
55021;SDS011;68328;35.990;-86.756;2023-04-16T11:43:30;3;;;3;;
55021;SDS011;68328;35.990;-86.756;2023-04-16T11:45:56;2;;;2;;
55021;SDS011;68328;35.990;-86.756;2023-04-16T11:48:21;3;;;3;;
55021;SDS011;68328;35.990;-86.756;2023-04-16T11:50:46;3;;;3;;
55021;SDS011;68328;35.990;-86.756;2023-04-16T11:53:11;4;;;3;;
55021;SDS011;68328;35.990;-86.756;2023-04-16T12:02:52;3;;;3;;
55021;SDS011;68328;35.990;-86.756;2023-04-16T12:05:27;3;;;3;;
55021;SDS011;68328;35.990;-86.756;2023-04-16T12:07:44;2;;;2;;
55021;SDS011;68328;35.990;-86.756;2023-04-16T12:10:10;1;;;1;;
55021;SDS011;68328;35.990;-86.756;2023-04-16T12:12:34;3;;;3;;
55021;SDS011;68328;35.990;-86.756;2023-04-16T12:14:59;3;;;3;;
55021;SDS011;68328;35.990;-86.756;2023-04-16T12:17:25;3;;;3;;
55021;SDS011;68328;35.990;-86.756;2023-04-16T12:19:51;3;;;2;;
55021;SDS011;68328;35.990;-86.756;2023-04-16T12:22:15;2;;;2;;
55021;SDS011;68328;35.990;-86.756;2023-04-16T12:24:41;3;;;3;;
55021;SDS011;68328;35.990;-86.756;2023-04-16T12:27:06;4;;;4;;
55021;SDS011;68328;35.990;-86.756;2023-04-16T12:29:32;3;;;2;;
55021;SDS011;68328;35.990;-86.756;2023-04-16T12:31:56;4;;;4;;
55021;SDS011;68328;35.990;-86.756;2023-04-16T12:34:21;3;;;2;;
55021;SDS011;68328;35.990;-86.756;2023-04-16T12:36:48;8;;;8;;
55021;SDS011;68328;35.990;-86.756;2023-04-16T12:39:13;1;;;1;;
55021;SDS011;68328;35.990;-86.756;2023-04-16T12:41:38;0;;;0;;
55021;SDS011;68328;35.990;-86.756;2023-04-16T12:44:04;1;;;1;;
55021;SDS011;68328;35.990;-86.756;2023-04-16T12:46:29;2;;;1;;
55021;SDS011;68328;35.990;-86.756;2023-04-16T12:48:54;1;;;1;;
55021;SDS011;68328;35.990;-86.756;2023-04-16T12:51:20;0;;;0;;
55021;SDS011;68328;35.990;-86.756;2023-04-16T12:53:44;0;;;0;;
55021;SDS011;68328;35.990;-86.756;2023-04-16T12:56:10;1;;;1;;
55021;SDS011;68328;35.990;-86.756;2023-04-16T12:58:36;1;;;1;;
55021;SDS011;68328;35.990;-86.756;2023-04-16T13:01:00;0;;;0;;
55021;SDS011;68328;35.990;-86.756;2023-04-16T13:03:26;1;;;1;;
55021;SDS011;68328;35.990;-86.756;2023-04-16T13:05:51;0;;;0;;
55021;SDS011;68328;35.990;-86.756;2023-04-16T13:08:16;0;;;0;;
55021;SDS011;68328;35.990;-86.756;2023-04-16T13:10:42;1;;;1;;
55021;SDS011;68328;35.990;-86.756;2023-04-16T13:13:06;0;;;0;;
55021;SDS011;68328;35.990;-86.756;2023-04-16T13:15:32;0;;;0;;
55021;SDS011;68328;35.990;-86.756;2023-04-16T13:17:57;1;;;0;;
55021;SDS011;68328;35.990;-86.756;2023-04-16T13:20:22;0;;;0;;
55021;SDS011;68328;35.990;-86.756;2023-04-16T13:22:48;0;;;0;;
55021;SDS011;68328;35.990;-86.756;2023-04-16T13:25:13;0;;;0;;
55021;SDS011;68328;35.990;-86.756;2023-04-16T13:27:38;0;;;0;;
55021;SDS011;68328;35.990;-86.756;2023-04-16T13:30:05;0;;;0;;
55021;SDS011;68328;35.990;-86.756;2023-04-16T13:32:29;0;;;0;;
55021;SDS011;68328;35.990;-86.756;2023-04-16T13:34:54;1;;;1;;
55021;SDS011;68328;35.990;-86.756;2023-04-16T13:37:19;0;;;0;;
55021;SDS011;68328;35.990;-86.756;2023-04-16T13:39:46;0;;;0;;
55021;SDS011;68328;35.990;-86.756;2023-04-16T13:42:10;2;;;1;;
55021;SDS011;68328;35.990;-86.756;2023-04-16T13:44:36;5;;;4;;
55021;SDS011;68328;35.990;-86.756;2023-04-16T13:47:01;1;;;1;;
55021;SDS011;68328;35.990;-86.756;2023-04-16T13:49:26;0;;;0;;
55021;SDS011;68328;35.990;-86.756;2023-04-16T13:51:52;1;;;0;;
55021;SDS011;68328;35.990;-86.756;2023-04-16T13:54:18;0;;;0;;
55021;SDS011;68328;35.990;-86.756;2023-04-16T13:56:42;0;;;0;;
55021;SDS011;68328;35.990;-86.756;2023-04-16T13:59:09;1;;;1;;
55021;SDS011;68328;35.990;-86.756;2023-04-16T14:01:33;0;;;0;;
55021;SDS011;68328;35.990;-86.756;2023-04-16T14:03:59;1;;;0;;
55021;SDS011;68328;35.990;-86.756;2023-04-16T14:08:49;1;;;0;;
55021;SDS011;68328;35.990;-86.756;2023-04-16T14:11:14;1;;;1;;
55021;SDS011;68328;35.990;-86.756;2023-04-16T14:13:40;0;;;0;;
55021;SDS011;68328;35.990;-86.756;2023-04-16T14:16:05;1;;;1;;
55021;SDS011;68328;35.990;-86.756;2023-04-16T14:18:30;1;;;1;;
55021;SDS011;68328;35.990;-86.756;2023-04-16T14:20:55;1;;;1;;
55021;SDS011;68328;35.990;-86.756;2023-04-16T14:23:21;0;;;0;;
55021;SDS011;68328;35.990;-86.756;2023-04-16T14:25:47;1;;;1;;
55021;SDS011;68328;35.990;-86.756;2023-04-16T14:28:13;1;;;1;;
55021;SDS011;68328;35.990;-86.756;2023-04-16T14:30:37;3;;;3;;
55021;SDS011;68328;35.990;-86.756;2023-04-16T14:33:04;2;;;2;;
55021;SDS011;68328;35.990;-86.756;2023-04-16T14:35:28;1;;;1;;
55021;SDS011;68328;35.990;-86.756;2023-04-16T14:37:53;2;;;2;;
55021;SDS011;68328;35.990;-86.756;2023-04-16T14:40:18;1;;;1;;
55021;SDS011;68328;35.990;-86.756;2023-04-16T14:42:43;1;;;1;;
55021;SDS011;68328;35.990;-86.756;2023-04-16T14:45:09;2;;;0;;
55021;SDS011;68328;35.990;-86.756;2023-04-16T14:47:34;2;;;2;;
55021;SDS011;68328;35.990;-86.756;2023-04-16T14:49:59;2;;;1;;
55021;SDS011;68328;35.990;-86.756;2023-04-16T14:52:26;0;;;0;;
55021;SDS011;68328;35.990;-86.756;2023-04-16T14:54:50;1;;;1;;
55021;SDS011;68328;35.990;-86.756;2023-04-16T14:57:15;2;;;2;;
55021;SDS011;68328;35.990;-86.756;2023-04-16T14:59:41;2;;;2;;
55021;SDS011;68328;35.990;-86.756;2023-04-16T15:02:06;2;;;2;;
55021;SDS011;68328;35.990;-86.756;2023-04-16T15:04:31;1;;;1;;
55021;SDS011;68328;35.990;-86.756;2023-04-16T15:14:13;1;;;1;;
55021;SDS011;68328;35.990;-86.756;2023-04-16T15:16:37;1;;;1;;
55021;SDS011;68328;35.990;-86.756;2023-04-16T15:19:03;1;;;1;;
55021;SDS011;68328;35.990;-86.756;2023-04-16T15:21:28;1;;;1;;
55021;SDS011;68328;35.990;-86.756;2023-04-16T15:23:53;0;;;0;;
55021;SDS011;68328;35.990;-86.756;2023-04-16T15:26:20;2;;;1;;
55021;SDS011;68328;35.990;-86.756;2023-04-16T15:28:45;0;;;0;;
55021;SDS011;68328;35.990;-86.756;2023-04-16T15:31:10;0;;;0;;
55021;SDS011;68328;35.990;-86.756;2023-04-16T15:33:36;0;;;0;;
55021;SDS011;68328;35.990;-86.756;2023-04-16T15:36:00;1;;;1;;
55021;SDS011;68328;35.990;-86.756;2023-04-16T15:38:25;1;;;1;;
55021;SDS011;68328;35.990;-86.756;2023-04-16T15:40:51;1;;;1;;
55021;SDS011;68328;35.990;-86.756;2023-04-16T15:43:15;0;;;0;;
55021;SDS011;68328;35.990;-86.756;2023-04-16T15:45:41;1;;;1;;